ADDS METAR Data INFO
IDs: Format: Raw Decoded Include TAF

Data at: 2044 UTC 19 Jul 2018

KVCT 191951Z 16009KT 10SM CLR 34/22 A2992 RMK AO2 SLP128 T03440222